Airfield :
LOGIN :

Register | Disclaimer

   EN    FR    IT 

 










Legend :    VFR   Marginal VFR   IFR   Intensive IFR   Very Intensive IFR
Visi :
Ceiling :
>= 8 km
>= 3000ft
5 to 8 km
1000 to 3000 ft
1500m to 5 km
500 to 1000 ft
800 to 1500m
200 to 500 ft
< 800m
< 200 ft
Symbols :   Thunderstorms  Fog  Heavy snow  Heavy precipitations  Wind > 20 kt
SIGMETs :     Misc.  Thunderstorms  Icing  Turbulence  Mountain Waves  Volcanic Ashes






- Airport Elevation : 598 ft
- IATA code : BQH


EGKB - Biggin Hill

CURRENT METAR :
  • 171920Z 17007KT CAVOK 16/13 Q1014

EXPIRED METARs :
  • 171850Z 17006KT CAVOK 16/13 Q1014
  • 171820Z 16006KT CAVOK 16/13 Q1014
  • 171750Z 16006KT CAVOK 17/14 Q1014
  • 171720Z 16007KT CAVOK 18/14 Q1013
  • 171650Z 16009KT 9999 FEW025 19/14 Q1014

TAF TAF EGKB
Valid from the 17 at 18:00 until the 17 at 22:00 UTC


171659Z 1718/1722 15005KT 9999 FEW020
PROB30
TEMPO 1721/1722 7000



MET'MAP, your aeronautical weather chart ! - Copyright ORBIFLY December 2007 - Disclaimer

ORBIFLY MET'MAP TEAM :

Programming & Development : Alexandra Zaïnal
Concept & original design : Baudouin d'Aumeries
Assistance for programming : Marc-Olivier Méhu
Technical & hardware support : Manuel Goepfert

Contact : metmap@orbifly.com




SOURCES & CREDITS :

   NOAA